Time;durP1;ratioP1;P1;durP2;ratioP2;P2;SDS_P1;SDS_P2;PMS_P1;PMS_P2;Temp;Humidity;BMP_temperature;BMP_pressure;BME280_temperature;BME280_humidity;BME280_pressure;Samples;Min_cycle;Max_cycle;Signal;HPM_P1;HPM_P2
2022/10/29 00:00:44;;;;;;;;;;;;;;;9.42;75.80;101103.09;1656771;83;20220;-73
2022/10/29 00:03:10;;;;;;;;;;;;;;;9.45;75.83;101102.04;1670447;85;22486;-73
2022/10/29 00:05:36;;;;;;;;;;;;;;;9.45;75.87;101091.02;1664287;84;20152;-73
2022/10/29 00:08:03;;;;;;;;;;;;;;;9.46;75.88;101082.20;1645026;85;20225;-74
2022/10/29 00:10:29;;;;;;;;;;;;;;;9.49;75.91;101078.51;1676574;84;20529;-73
2022/10/29 00:12:57;;;;;;;;;;;;;;;9.49;75.93;101079.83;1694299;83;20175;-73
2022/10/29 00:15:25;;;;;;;;;;;;;;;9.50;75.99;101072.77;1640460;85;21226;-74
2022/10/29 00:17:51;;;;;;;;;;;;;;;9.51;75.99;101073.98;1665276;83;20144;-74
2022/10/29 00:20:19;;;;;;;;;;;;;;;9.52;76.08;101073.03;1687177;82;20145;-73
2022/10/29 00:22:47;;;;;;;;;;;;;;;9.53;76.17;101066.81;1702170;82;20420;-73
2022/10/29 00:25:14;;;;;;;;;;;;;;;9.55;76.22;101069.34;1712154;82;20145;-74
2022/10/29 00:27:41;;;;;;;;;;;;;;;9.55;76.27;101066.23;1647087;85;22872;-73
2022/10/29 00:30:09;;;;;;;;;;;;;;;9.56;76.32;101065.79;1672771;85;20908;-73
2022/10/29 00:32:36;;;;;;;;;;;;;;;9.56;76.37;101060.04;1669790;84;20177;-73
2022/10/29 00:35:03;;;;;;;;;;;;;;;9.58;76.44;101063.89;1678446;84;20569;-73
2022/10/29 00:37:29;;;;;;;;;;;;;;;9.59;76.46;101064.27;1658473;85;20504;-74
2022/10/29 00:39:56;;;;;;;;;;;;;;;9.59;76.53;101058.52;1664754;85;21930;-75
2022/10/29 00:42:22;;;;;;;;;;;;;;;9.62;76.57;101058.78;1666049;85;20216;-74
2022/10/29 00:44:48;;;;;;;;;;;;;;;9.61;76.57;101057.94;1667126;84;20399;-75
2022/10/29 00:47:20;;;;;;;;;;;;;;;9.61;76.68;101059.25;1688415;83;20540;-74
2022/10/29 00:49:56;;;;;;;;;;;;;;;9.64;76.69;101056.88;1665067;84;20155;-74
2022/10/29 00:52:23;;;;;;;;;;;;;;;9.65;76.78;101059.89;1668196;84;22450;-74
2022/10/29 00:54:49;;;;;;;;;;;;;;;9.65;76.83;101060.77;1648882;85;20187;-73
2022/10/29 00:57:21;;;;;;;;;;;;;;;9.66;76.91;101057.18;1663563;84;20167;-73
2022/10/29 00:59:47;;;;;;;;;;;;;;;9.67;76.96;101053.59;1665826;84;20453;-73
2022/10/29 01:02:14;;;;;;;;;;;;;;;9.68;77.05;101052.64;1668147;84;20190;-74
2022/10/29 01:04:40;;;;;;;;;;;;;;;9.69;77.11;101053.02;1673849;84;21836;-79
2022/10/29 01:07:07;;;;;;;;;;;;;;;9.71;77.17;101053.75;1652911;85;20598;-73
2022/10/29 01:09:33;;;;;;;;;;;;;;;9.73;77.20;101053.65;1668062;84;20156;-73
2022/10/29 01:12:09;;;;;;;;;;;;;;;9.74;77.27;101054.87;1657248;83;21075;-73
2022/10/29 01:14:51;;;;;;;;;;;;;;;9.78;77.28;101044.14;1672191;85;20161;-73
2022/10/29 01:17:50;;;;;;;;;;;;;;;9.80;77.32;101039.12;1659251;84;21894;-73
2022/10/29 01:20:36;;;;;;;;;;;;;;;9.82;77.35;101035.06;1691601;83;20175;-73
2022/10/29 01:23:30;;;;;;;;;;;;;;;9.85;77.42;101030.92;1674072;85;20200;-73
2022/10/29 01:26:20;;;;;;;;;;;;;;;9.87;77.41;101031.19;1663736;83;21139;-73
2022/10/29 01:29:03;;;;;;;;;;;;;;;9.88;77.45;101027.59;1672950;84;20156;-75
2022/10/29 01:31:54;;;;;;;;;;;;;;;9.90;77.46;101027.02;1678173;83;21849;-73
2022/10/29 01:34:30;;;;;;;;;;;;;;;9.90;77.48;101028.34;1656131;85;20176;-73
2022/10/29 01:37:12;;;;;;;;;;;;;;;9.92;77.50;101021.62;1665834;84;20161;-73
2022/10/29 01:39:56;;;;;;;;;;;;;;;9.93;77.51;101023.32;1674060;84;20552;-73
2022/10/29 01:42:41;;;;;;;;;;;;;;;9.94;77.56;101020.61;1699314;81;20140;-73
2022/10/29 01:45:17;;;;;;;;;;;;;;;9.95;77.57;101009.58;1710608;82;21956;-73
2022/10/29 01:47:46;;;;;;;;;;;;;;;9.97;77.62;101017.75;1710064;82;20554;-72
2022/10/29 01:50:14;;;;;;;;;;;;;;;10.00;77.63;101012.73;1712087;82;20171;-72
2022/10/29 01:52:41;;;;;;;;;;;;;;;10.01;77.62;101004.71;1712574;82;20399;-72
2022/10/29 01:55:08;;;;;;;;;;;;;;;10.03;77.62;101003.28;1719472;81;20140;-73
2022/10/29 01:57:36;;;;;;;;;;;;;;;10.03;77.62;101005.92;1710637;81;22437;-75
2022/10/29 02:00:08;;;;;;;;;;;;;;;10.02;77.67;101003.76;1709296;82;20133;-73
2022/10/29 02:02:47;;;;;;;;;;;;;;;10.06;77.67;100996.98;1724282;81;20192;-72
2022/10/29 02:05:39;;;;;;;;;;;;;;;10.09;77.68;100987.52;1718015;81;21057;-76
2022/10/29 02:08:10;;;;;;;;;;;;;;;10.08;77.66;100991.95;1718058;82;20147;-74
2022/10/29 02:10:39;;;;;;;;;;;;;;;10.07;77.70;100984.99;1714852;81;21244;-74
2022/10/29 02:13:05;;;;;;;;;;;;;;;10.08;77.76;100988.00;1713189;81;20164;-75
2022/10/29 02:15:37;;;;;;;;;;;;;;;10.10;77.79;100991.38;1708017;81;20203;-74
2022/10/29 02:18:05;;;;;;;;;;;;;;;10.11;77.80;100997.02;1703174;82;20443;-74
2022/10/29 02:20:32;;;;;;;;;;;;;;;10.12;77.85;100997.39;1716660;81;20206;-74
2022/10/29 02:23:00;;;;;;;;;;;;;;;10.13;77.88;100996.91;1718630;81;21883;-74
2022/10/29 02:25:27;;;;;;;;;;;;;;;10.14;77.82;100992.87;1721162;81;20158;-74
2022/10/29 02:27:55;;;;;;;;;;;;;;;10.14;77.82;100989.39;1708185;82;20216;-74
2022/10/29 02:30:22;;;;;;;;;;;;;;;10.13;77.83;100987.67;1716151;82;20481;-73
2022/10/29 02:32:48;;;;;;;;;;;;;;;10.14;77.83;100990.23;1705802;82;20143;-73
2022/10/29 02:35:14;;;;;;;;;;;;;;;10.13;77.79;100992.48;1714490;82;22453;-73
2022/10/29 02:37:41;;;;;;;;;;;;;;;10.12;77.78;100989.94;1710217;81;20184;-73
2022/10/29 02:40:09;;;;;;;;;;;;;;;10.10;77.77;100989.21;1702199;82;20176;-73
2022/10/29 02:42:35;;;;;;;;;;;;;;;10.09;77.78;100989.69;1711909;82;20868;-73
2022/10/29 02:45:03;;;;;;;;;;;;;;;10.08;77.76;100988.00;1705960;82;36599;-73
2022/10/29 02:47:30;;;;;;;;;;;;;;;10.07;77.72;100986.31;1714731;83;22523;-73
2022/10/29 02:49:56;;;;;;;;;;;;;;;10.05;77.67;100976.34;1720741;82;20205;-73
2022/10/29 02:52:23;;;;;;;;;;;;;;;10.02;77.66;100970.77;1710717;82;20134;-75
2022/10/29 02:54:50;;;;;;;;;;;;;;;9.98;77.63;100969.77;1703360;82;21108;-73
2022/10/29 02:57:16;;;;;;;;;;;;;;;9.94;77.61;100961.67;1709195;82;20149;-73
2022/10/29 02:59:42;;;;;;;;;;;;;;;9.89;77.58;100963.80;1711668;82;22569;-73
2022/10/29 03:02:09;;;;;;;;;;;;;;;9.84;77.61;100962.77;1705985;82;20146;-73
2022/10/29 03:04:38;;;;;;;;;;;;;;;9.82;77.61;100972.58;1717243;82;20147;-73
2022/10/29 03:07:04;;;;;;;;;;;;;;;9.80;77.59;100972.32;1705471;81;20472;-73
2022/10/29 03:09:30;;;;;;;;;;;;;;;9.76;77.58;100970.38;1678779;83;20198;-73
2022/10/29 03:11:57;;;;;;;;;;;;;;;9.72;77.57;100964.44;1678741;83;21853;-73
2022/10/29 03:14:23;;;;;;;;;;;;;;;9.71;77.56;100963.22;1677052;85;20155;-73
2022/10/29 03:16:50;;;;;;;;;;;;;;;9.68;77.57;100966.92;1681042;83;20160;-74
2022/10/29 03:19:18;;;;;;;;;;;;;;;9.66;77.62;100964.02;1682589;84;20380;-73
2022/10/29 03:21:44;;;;;;;;;;;;;;;9.65;77.58;100964.94;1677533;84;20447;-73
2022/10/29 03:24:10;;;;;;;;;;;;;;;9.63;77.62;100958.92;1683524;83;21760;-74
2022/10/29 03:26:37;;;;;;;;;;;;;;;9.61;77.59;100955.08;1679926;84;20171;-73
2022/10/29 03:29:03;;;;;;;;;;;;;;;9.58;77.63;100951.33;1676998;84;20155;-73
2022/10/29 03:31:30;;;;;;;;;;;;;;;9.57;77.66;100957.55;1674649;84;20468;-73
2022/10/29 03:33:56;;;;;;;;;;;;;;;9.55;77.70;100954.63;1676590;84;20185;-73
2022/10/29 03:36:22;;;;;;;;;;;;;;;9.54;77.76;100951.14;1677607;84;22592;-73
2022/10/29 03:38:49;;;;;;;;;;;;;;;9.55;77.86;100954.63;1672487;85;20155;-73
2022/10/29 03:41:15;;;;;;;;;;;;;;;9.56;77.81;100953.70;1676986;84;20170;-74
2022/10/29 03:43:42;;;;;;;;;;;;;;;9.58;77.83;100957.08;1676660;84;20476;-73
2022/10/29 03:46:08;;;;;;;;;;;;;;;9.58;77.76;100950.02;1678220;84;20230;-72
2022/10/29 03:48:35;;;;;;;;;;;;;;;9.56;77.76;100947.11;1679505;84;21849;-73
2022/10/29 03:51:04;;;;;;;;;;;;;;;9.54;77.78;100943.23;1675179;84;20245;-73
2022/10/29 03:53:31;;;;;;;;;;;;;;;9.52;77.77;100941.17;1677349;84;20160;-73
2022/10/29 03:55:57;;;;;;;;;;;;;;;9.51;77.77;100939.97;1677271;84;20498;-73
2022/10/29 03:58:24;;;;;;;;;;;;;;;9.51;77.77;100940.81;1672242;84;20438;-74
2022/10/29 04:00:56;;;;;;;;;;;;;;;9.50;77.71;100936.48;1676518;84;22597;-73
2022/10/29 04:03:22;;;;;;;;;;;;;;;9.49;77.67;100933.48;1677287;84;20637;-73
2022/10/29 04:05:49;;;;;;;;;;;;;;;9.47;77.65;100936.70;1669703;84;20402;-76
2022/10/29 04:08:15;;;;;;;;;;;;;;;9.43;77.65;100925.95;1661442;84;20453;-73
2022/10/29 04:10:44;;;;;;;;;;;;;;;9.39;77.63;100920.05;1675740;84;20148;-74
2022/10/29 04:13:13;;;;;;;;;;;;;;;9.38;77.68;100918.84;1678317;84;20338;-73
2022/10/29 04:15:40;;;;;;;;;;;;;;;9.36;77.71;100915.44;1681755;84;20209;-73
2022/10/29 04:18:06;;;;;;;;;;;;;;;9.34;77.67;100915.55;1673861;84;20435;-73
2022/10/29 04:20:35;;;;;;;;;;;;;;;9.31;77.68;100910.95;1675729;84;20441;-73
2022/10/29 04:23:01;;;;;;;;;;;;;;;9.28;77.69;100912.01;1676464;84;20176;-73
2022/10/29 04:25:28;;;;;;;;;;;;;;;9.27;77.72;100915.59;1673836;84;21920;-73
2022/10/29 04:27:55;;;;;;;;;;;;;;;9.25;77.74;100910.87;1674713;84;20237;-73
2022/10/29 04:30:22;;;;;;;;;;;;;;;9.24;77.74;100914.45;1676004;83;20181;-79
2022/10/29 04:32:49;;;;;;;;;;;;;;;9.22;77.74;100912.88;1688297;84;21204;-73
2022/10/29 04:35:16;;;;;;;;;;;;;;;9.20;77.74;100912.98;1685747;83;20286;-74
2022/10/29 04:37:43;;;;;;;;;;;;;;;9.18;77.73;100905.65;1678039;84;21883;-73
2022/10/29 04:40:10;;;;;;;;;;;;;;;9.16;77.77;100899.61;1676365;85;20209;-73
2022/10/29 04:42:38;;;;;;;;;;;;;;;9.13;77.78;100899.34;1669661;84;20406;-74
2022/10/29 04:45:07;;;;;;;;;;;;;;;9.09;77.84;100904.45;1681944;83;20470;-73
2022/10/29 04:47:33;;;;;;;;;;;;;;;9.06;77.90;100899.36;1683543;83;20309;-73
2022/10/29 04:49:59;;;;;;;;;;;;;;;9.04;77.99;100905.68;1684879;83;21913;-73
2022/10/29 04:52:25;;;;;;;;;;;;;;;9.02;78.04;100904.94;1678039;84;20185;-74
2022/10/29 04:54:52;;;;;;;;;;;;;;;8.99;78.06;100899.41;1675981;84;20141;-73
2022/10/29 04:57:18;;;;;;;;;;;;;;;8.99;78.06;100907.31;1675719;84;21121;-74
2022/10/29 04:59:45;;;;;;;;;;;;;;;8.98;78.08;100905.63;1673224;84;20159;-73
2022/10/29 05:02:11;;;;;;;;;;;;;;;8.97;78.11;100903.05;1676333;84;21809;-74
2022/10/29 05:04:37;;;;;;;;;;;;;;;8.95;78.19;100909.75;1675149;84;20205;-74
2022/10/29 05:07:04;;;;;;;;;;;;;;;8.93;78.21;100904.21;1676675;84;20240;-73
2022/10/29 05:09:31;;;;;;;;;;;;;;;8.91;78.30;100908.73;1673734;84;20880;-73
2022/10/29 05:11:59;;;;;;;;;;;;;;;8.91;78.37;100913.53;1680409;84;20160;-74
2022/10/29 05:14:26;;;;;;;;;;;;;;;8.92;78.48;100911.74;1675117;84;21871;-74
2022/10/29 05:16:54;;;;;;;;;;;;;;;8.92;78.52;100907.80;1678567;84;20144;-76
2022/10/29 05:19:20;;;;;;;;;;;;;;;8.93;78.59;100910.33;1674980;84;20470;-74
2022/10/29 05:21:46;;;;;;;;;;;;;;;8.95;78.67;100915.02;1675326;84;20410;-73
2022/10/29 05:24:13;;;;;;;;;;;;;;;8.96;78.77;100921.97;1679390;84;20156;-73
2022/10/29 05:26:39;;;;;;;;;;;;;;;8.97;78.88;100923.66;1679796;83;21812;-73
2022/10/29 05:29:05;;;;;;;;;;;;;;;8.99;79.04;100915.21;1679861;84;20144;-73
2022/10/29 05:31:31;;;;;;;;;;;;;;;9.02;79.19;100917.64;1675972;84;20193;-74
2022/10/29 05:33:59;;;;;;;;;;;;;;;9.07;79.25;100919.52;1674514;84;20482;-73
2022/10/29 05:36:25;;;;;;;;;;;;;;;9.10;79.32;100910.09;1678386;84;20132;-73
2022/10/29 05:38:51;;;;;;;;;;;;;;;9.15;79.37;100914.58;1673820;85;21816;-73
2022/10/29 05:41:18;;;;;;;;;;;;;;;9.20;79.42;100915.61;1671685;84;20667;-74
2022/10/29 05:43:49;;;;;;;;;;;;;;;9.25;79.44;100916.14;1675374;84;20428;-74
2022/10/29 05:46:15;;;;;;;;;;;;;;;9.30;79.44;100915.86;1680699;84;20530;-74
2022/10/29 05:48:42;;;;;;;;;;;;;;;9.34;79.47;100916.86;1676517;84;20187;-75
2022/10/29 05:51:09;;;;;;;;;;;;;;;9.39;79.48;100911.30;1675858;84;20332;-74
2022/10/29 05:53:36;;;;;;;;;;;;;;;9.46;79.47;100912.12;1676353;84;20154;-72
2022/10/29 05:56:03;;;;;;;;;;;;;;;9.52;79.49;100912.17;1680472;84;20587;-73
2022/10/29 05:58:30;;;;;;;;;;;;;;;9.58;79.51;100913.09;1668676;84;20344;-73
2022/10/29 06:00:56;;;;;;;;;;;;;;;9.64;79.49;100907.86;1678630;84;20147;-73
2022/10/29 06:03:23;;;;;;;;;;;;;;;9.71;79.44;100907.35;1670730;84;21922;-73
2022/10/29 06:05:50;;;;;;;;;;;;;;;9.78;79.36;100907.80;1674570;84;20136;-73
2022/10/29 06:08:17;;;;;;;;;;;;;;;9.84;79.29;100904.72;1681678;83;20240;-73
2022/10/29 06:10:44;;;;;;;;;;;;;;;9.90;79.19;100910.91;1673214;84;20551;-72
2022/10/29 06:13:13;;;;;;;;;;;;;;;9.96;79.05;100907.03;1677234;84;20205;-73
2022/10/29 06:15:41;;;;;;;;;;;;;;;10.02;78.96;100907.91;1686576;84;20245;-73
2022/10/29 06:18:07;;;;;;;;;;;;;;;10.08;78.78;100906.17;1678701;83;20174;-73
2022/10/29 06:20:33;;;;;;;;;;;;;;;10.12;78.71;100910.28;1677558;84;20200;-72
2022/10/29 06:23:01;;;;;;;;;;;;;;;10.20;78.54;100909.76;1678804;84;21239;-73
2022/10/29 06:25:27;;;;;;;;;;;;;;;10.24;78.42;100901.56;1679192;84;20154;-73
2022/10/29 06:28:05;;;;;;;;;;;;;;;10.32;78.30;100908.45;1673399;84;22517;-73
2022/10/29 06:30:32;;;;;;;;;;;;;;;10.40;78.21;100911.88;1675147;84;20178;-77
2022/10/29 06:33:01;;;;;;;;;;;;;;;10.50;78.07;100909.44;1683387;83;20169;-76
2022/10/29 06:35:27;;;;;;;;;;;;;;;10.56;77.87;100910.34;1671559;84;20490;-74
2022/10/29 06:37:54;;;;;;;;;;;;;;;10.61;77.63;100902.91;1683275;84;20147;-74
2022/10/29 06:40:20;;;;;;;;;;;;;;;10.66;77.41;100899.48;1676998;83;21791;-75
2022/10/29 06:42:48;;;;;;;;;;;;;;;10.73;77.33;100899.42;1678539;83;20198;-76
2022/10/29 06:45:14;;;;;;;;;;;;;;;10.81;77.13;100879.91;1677229;83;20144;-74
2022/10/29 06:47:42;;;;;;;;;;;;;;;10.90;76.95;100877.04;1675217;84;20536;-78
2022/10/29 06:50:10;;;;;;;;;;;;;;;10.96;76.54;100873.97;1674171;84;20252;-75
2022/10/29 06:52:36;;;;;;;;;;;;;;;11.02;76.31;100877.49;1677941;85;21821;-74
2022/10/29 06:55:04;;;;;;;;;;;;;;;11.07;76.09;100877.98;1675932;85;20800;-75
2022/10/29 06:57:31;;;;;;;;;;;;;;;11.14;75.79;100883.67;1676021;84;20169;-76
2022/10/29 06:59:57;;;;;;;;;;;;;;;11.22;75.71;100879.99;1680946;83;20434;-76
2022/10/29 07:02:24;;;;;;;;;;;;;;;11.30;75.51;100883.39;1679820;83;20842;-76
2022/10/29 07:04:50;;;;;;;;;;;;;;;11.39;75.25;100885.36;1676659;84;21900;-75
2022/10/29 07:07:17;;;;;;;;;;;;;;;11.46;75.06;100882.11;1676888;83;20239;-75
2022/10/29 07:09:43;;;;;;;;;;;;;;;11.58;75.05;100883.47;1672737;85;20270;-75
2022/10/29 07:12:10;;;;;;;;;;;;;;;11.69;74.76;100873.78;1677068;85;20516;-73
2022/10/29 07:14:36;;;;;;;;;;;;;;;11.82;74.53;100870.22;1676319;84;20185;-75
2022/10/29 07:17:03;;;;;;;;;;;;;;;11.93;74.35;100866.27;1678735;83;21823;-75
2022/10/29 07:19:30;;;;;;;;;;;;;;;12.07;73.97;100871.35;1656201;85;20460;-73
2022/10/29 07:21:56;;;;;;;;;;;;;;;12.21;73.79;100863.64;1676358;84;20434;-72
2022/10/29 07:24:23;;;;;;;;;;;;;;;12.33;73.32;100857.37;1675427;85;20529;-74
2022/10/29 07:26:49;;;;;;;;;;;;;;;12.47;73.05;100847.86;1684925;84;20175;-73
2022/10/29 07:29:16;;;;;;;;;;;;;;;12.60;72.69;100850.36;1693038;84;21953;-74
2022/10/29 07:31:42;;;;;;;;;;;;;;;12.69;71.43;100832.88;1676544;84;20151;-74
2022/10/29 07:34:09;;;;;;;;;;;;;;;12.80;70.90;100850.08;1671193;84;20169;-74
2022/10/29 07:36:36;;;;;;;;;;;;;;;12.89;70.35;100842.70;1674688;83;20434;-74
2022/10/29 07:39:04;;;;;;;;;;;;;;;13.01;69.86;100849.64;1670401;84;20175;-73
2022/10/29 07:41:31;;;;;;;;;;;;;;;13.12;69.48;100844.78;1674636;84;21946;-77
2022/10/29 07:43:59;;;;;;;;;;;;;;;13.24;69.02;100844.31;1669378;83;20462;-72
2022/10/29 07:46:25;;;;;;;;;;;;;;;13.33;68.74;100844.39;1677378;83;20195;-75
2022/10/29 07:48:52;;;;;;;;;;;;;;;13.43;68.65;100836.50;1677435;84;20462;-75
2022/10/29 07:51:19;;;;;;;;;;;;;;;13.56;68.36;100835.80;1675024;83;20327;-74
2022/10/29 07:53:45;;;;;;;;;;;;;;;13.68;67.95;100839.23;1678720;83;22241;-77
2022/10/29 07:56:11;;;;;;;;;;;;;;;13.80;67.41;100839.98;1677737;83;20818;-74
2022/10/29 07:58:38;;;;;;;;;;;;;;;13.88;66.98;100838.36;1679964;83;20185;-74
2022/10/29 08:01:04;;;;;;;;;;;;;;;13.99;66.76;100836.98;1689011;82;20611;-74
2022/10/29 08:03:31;;;;;;;;;;;;;;;14.09;66.53;100820.22;1675359;84;20236;-73
2022/10/29 08:05:57;;;;;;;;;;;;;;;14.16;66.21;100824.87;1676412;84;21840;-74
2022/10/29 08:08:24;;;;;;;;;;;;;;;14.21;65.66;100831.97;1672623;84;21419;-74
2022/10/29 08:10:51;;;;;;;;;;;;;;;14.26;65.24;100830.22;1679392;83;20166;-76
2022/10/29 08:13:17;;;;;;;;;;;;;;;14.32;65.16;100816.41;1676447;85;20462;-70
2022/10/29 08:15:45;;;;;;;;;;;;;;;14.40;65.49;100823.22;1675006;84;20196;-71
2022/10/29 08:18:14;;;;;;;;;;;;;;;14.47;65.35;100819.54;1675336;83;21817;-73
2022/10/29 08:20:40;;;;;;;;;;;;;;;14.48;65.05;100822.09;1672307;84;20142;-75
2022/10/29 08:23:07;;;;;;;;;;;;;;;14.49;64.60;100825.09;1652300;84;20183;-72
2022/10/29 08:25:40;;;;;;;;;;;;;;;14.52;64.86;100807.53;1680211;84;20860;-71
2022/10/29 08:28:04;;;;;;;;;;;;;;;14.58;65.05;100813.65;1679477;84;20174;-74
2022/10/29 08:30:30;;;;;;;;;;;;;;;14.67;65.12;100817.30;1670807;83;21280;-72
2022/10/29 08:32:57;;;;;;;;;;;;;;;14.75;64.56;100808.12;1675046;84;20474;-77
2022/10/29 08:35:23;;;;;;;;;;;;;;;14.80;64.78;100809.89;1648174;84;20171;-75
2022/10/29 08:37:49;;;;;;;;;;;;;;;14.89;64.68;100802.42;1673481;84;20446;-74
2022/10/29 08:40:31;;;;;;;;;;;;;;;15.00;64.24;100804.09;1665586;83;20191;-74
2022/10/29 08:43:14;;;;;;;;;;;;;;;15.05;63.65;100804.99;1655197;84;21889;-73
2022/10/29 08:45:46;;;;;;;;;;;;;;;15.14;63.65;100798.83;1676430;83;20184;-74
2022/10/29 08:48:23;;;;;;;;;;;;;;;15.26;63.62;100799.55;1672365;83;20507;-73
2022/10/29 08:50:58;;;;;;;;;;;;;;;15.33;63.25;100789.50;1675705;84;20458;-74
2022/10/29 08:53:28;;;;;;;;;;;;;;;15.42;63.05;100789.14;1627310;83;20178;-72
2022/10/29 08:55:55;;;;;;;;;;;;;;;15.51;63.10;100782.95;1689201;83;21782;-73
2022/10/29 08:58:50;;;;;;;;;;;;;;;15.63;62.95;100782.33;1686485;83;20511;-77
2022/10/29 09:01:16;;;;;;;;;;;;;;;15.72;62.61;100787.62;1671996;85;20158;-73
2022/10/29 09:03:44;;;;;;;;;;;;;;;15.81;62.39;100778.42;1676106;83;21075;-72
2022/10/29 09:06:16;;;;;;;;;;;;;;;15.89;62.40;100774.53;1678637;83;20190;-73
2022/10/29 09:09:20;;;;;;;;;;;;;;;15.99;61.99;100770.84;1674514;84;22558;-75
2022/10/29 09:11:54;;;;;;;;;;;;;;;16.04;61.33;100763.76;1676096;83;20262;-74
2022/10/29 09:14:45;;;;;;;;;;;;;;;16.11;61.60;100767.48;1660309;83;20179;-74
2022/10/29 09:17:33;;;;;;;;;;;;;;;16.21;61.57;100766.97;1620262;86;21006;-72
2022/10/29 09:20:22;;;;;;;;;;;;;;;16.33;60.68;100762.27;1590459;89;20186;-72
2022/10/29 09:22:55;;;;;;;;;;;;;;;16.41;60.40;100757.53;1647321;84;22689;-72
2022/10/29 09:25:25;;;;;;;;;;;;;;;16.51;60.23;100751.14;1668559;84;20135;-72
2022/10/29 09:28:14;;;;;;;;;;;;;;;16.64;60.06;100755.26;1666416;84;20785;-81
2022/10/29 09:30:47;;;;;;;;;;;;;;;16.77;59.84;100741.06;1662945;85;20959;-76
2022/10/29 09:33:16;;;;;;;;;;;;;;;16.97;59.55;100740.41;1667291;84;20148;-72
2022/10/29 09:35:47;;;;;;;;;;;;;;;17.10;58.52;100747.04;1671544;84;21865;-75
2022/10/29 09:38:17;;;;;;;;;;;;;;;17.25;58.66;100738.45;1648510;85;20532;-74
2022/10/29 09:40:43;;;;;;;;;;;;;;;17.42;57.96;100743.75;1643886;85;20141;-73
2022/10/29 09:43:35;;;;;;;;;;;;;;;17.51;57.09;100733.97;1663519;84;20439;-72
2022/10/29 09:46:29;;;;;;;;;;;;;;;17.54;56.97;100736.81;1653361;85;20215;-74
2022/10/29 09:49:14;;;;;;;;;;;;;;;17.45;57.05;100732.75;1644290;84;21870;-73
2022/10/29 09:51:53;;;;;;;;;;;;;;;17.40;57.22;100732.90;1681529;85;20224;-73
2022/10/29 09:54:20;;;;;;;;;;;;;;;17.38;57.49;100727.72;1692534;82;20232;-72
2022/10/29 09:56:46;;;;;;;;;;;;;;;17.40;57.78;100721.72;1674471;84;20448;-73
2022/10/29 09:59:28;;;;;;;;;;;;;;;17.43;57.66;100722.73;1662483;85;20323;-72
2022/10/29 10:01:56;;;;;;;;;;;;;;;17.45;57.80;100703.88;1663387;84;21864;-72
2022/10/29 10:04:28;;;;;;;;;;;;;;;17.46;57.78;100702.38;1663639;84;20493;-72
2022/10/29 10:07:01;;;;;;;;;;;;;;;17.48;57.52;100704.91;1657252;85;20551;-72
2022/10/29 10:09:28;;;;;;;;;;;;;;;17.48;57.24;100699.58;1700036;83;20854;-71
2022/10/29 10:11:57;;;;;;;;;;;;;;;17.49;57.42;100693.23;1676181;85;20176;-72
2022/10/29 10:14:23;;;;;;;;;;;;;;;17.49;57.40;100688.39;1664159;84;22257;-72
2022/10/29 10:16:59;;;;;;;;;;;;;;;17.50;57.23;100684.72;1671569;84;20768;-72
2022/10/29 10:19:29;;;;;;;;;;;;;;;17.55;57.19;100682.39;1660414;84;20234;-71
2022/10/29 10:22:00;;;;;;;;;;;;;;;17.60;57.34;100672.91;1662680;84;20864;-72
2022/10/29 10:24:30;;;;;;;;;;;;;;;17.61;57.44;100677.76;1651031;85;20140;-71
2022/10/29 10:26:57;;;;;;;;;;;;;;;17.56;57.76;100668.04;1669541;85;21806;-71
2022/10/29 10:29:24;;;;;;;;;;;;;;;17.55;58.00;100668.54;1668538;85;20148;-71
2022/10/29 10:31:58;;;;;;;;;;;;;;;17.56;58.14;100659.52;1651070;84;20634;-71
2022/10/29 10:34:36;;;;;;;;;;;;;;;17.60;58.21;100656.05;1663985;85;21050;-72
2022/10/29 10:37:05;;;;;;;;;;;;;;;17.64;58.03;100654.22;1659184;85;20173;-72
2022/10/29 10:39:44;;;;;;;;;;;;;;;17.69;58.42;100643.94;1663785;84;21866;-72
2022/10/29 10:42:19;;;;;;;;;;;;;;;17.80;58.29;100643.31;1666477;84;20331;-73
2022/10/29 10:44:53;;;;;;;;;;;;;;;17.90;57.29;100646.68;1693244;82;20455;-72
2022/10/29 10:47:21;;;;;;;;;;;;;;;18.02;55.81;100645.37;1697964;81;20726;-71
2022/10/29 10:49:48;;;;;;;;;;;;;;;18.12;54.91;100639.88;1745189;81;20162;-72
2022/10/29 10:52:27;;;;;;;;;;;;;;;18.17;54.43;100636.23;1725320;81;21809;-73
2022/10/29 10:55:08;;;;;;;;;;;;;;;18.22;54.55;100641.90;1728589;81;20501;-74
2022/10/29 10:57:39;;;;;;;;;;;;;;;18.26;54.11;100635.23;1728344;81;20168;-72
2022/10/29 11:00:08;;;;;;;;;;;;;;;18.28;54.13;100631.39;1721098;82;20458;-72
2022/10/29 11:02:49;;;;;;;;;;;;;;;18.29;53.95;100625.03;1721631;82;20205;-71
2022/10/29 11:05:19;;;;;;;;;;;;;;;18.27;54.21;100621.70;1700848;82;21958;-73
2022/10/29 11:07:58;;;;;;;;;;;;;;;18.29;54.26;100615.67;1716521;82;20906;-72
2022/10/29 11:10:39;;;;;;;;;;;;;;;18.36;54.23;100602.98;1725835;81;20160;-73
2022/10/29 11:13:16;;;;;;;;;;;;;;;18.39;54.02;100592.78;1682538;82;20187;-71
2022/10/29 11:15:57;;;;;;;;;;;;;;;18.35;53.83;100586.61;1703675;83;20165;-72
2022/10/29 11:18:31;;;;;;;;;;;;;;;18.28;53.94;100579.75;1714210;82;21869;-74
2022/10/29 11:21:04;;;;;;;;;;;;;;;18.21;54.53;100576.90;1682309;82;20171;-72
2022/10/29 11:23:55;;;;;;;;;;;;;;;18.21;54.92;100574.22;1694265;82;20203;-72
2022/10/29 11:26:48;;;;;;;;;;;;;;;18.27;54.87;100582.09;1720091;82;20462;-72
2022/10/29 11:29:31;;;;;;;;;;;;;;;18.41;55.09;100583.25;1720193;82;20161;-72
2022/10/29 11:32:01;;;;;;;;;;;;;;;18.72;54.83;100574.92;1742851;80;21941;-72
2022/10/29 11:34:47;;;;;;;;;;;;;;;19.06;53.83;100571.98;1730891;81;20440;-72
2022/10/29 11:37:24;;;;;;;;;;;;;;;19.40;52.60;100570.88;1717656;82;20259;-73
2022/10/29 11:39:55;;;;;;;;;;;;;;;19.74;52.10;100567.87;1689128;83;20487;-71
2022/10/29 11:42:21;;;;;;;;;;;;;;;20.01;51.31;100562.50;1714974;82;20389;-71
2022/10/29 11:44:47;;;;;;;;;;;;;;;20.16;50.19;100550.48;1715274;82;21793;-71
2022/10/29 11:47:41;;;;;;;;;;;;;;;20.33;50.16;100553.88;1720441;81;20129;-72
2022/10/29 11:50:20;;;;;;;;;;;;;;;20.52;49.49;100542.66;1709187;83;20145;-72
2022/10/29 11:53:07;;;;;;;;;;;;;;;20.71;48.98;100543.48;1711415;82;21141;-72
2022/10/29 11:55:59;;;;;;;;;;;;;;;20.82;48.06;100538.16;1708052;83;20188;-72
2022/10/29 11:58:32;;;;;;;;;;;;;;;20.77;47.86;100538.73;1647529;85;21870;-73
2022/10/29 12:01:04;;;;;;;;;;;;;;;20.70;47.70;100533.77;1667695;85;20152;-72
2022/10/29 12:03:47;;;;;;;;;;;;;;;20.55;47.44;100532.38;1673620;85;20442;-72
2022/10/29 12:06:32;;;;;;;;;;;;;;;20.39;48.10;100539.75;1667581;83;21165;-71
2022/10/29 12:09:19;;;;;;;;;;;;;;;20.21;48.31;100526.66;1642358;86;20414;-73
2022/10/29 12:11:59;;;;;;;;;;;;;;;20.06;48.75;100526.59;1678828;83;21867;-73
2022/10/29 12:14:32;;;;;;;;;;;;;;;19.99;48.89;100531.02;1672890;84;20828;-72
2022/10/29 12:17:10;;;;;;;;;;;;;;;19.97;48.61;100534.36;1665609;85;20150;-71
2022/10/29 12:19:46;;;;;;;;;;;;;;;19.92;48.37;100524.70;1668575;84;20374;-72
2022/10/29 12:22:29;;;;;;;;;;;;;;;19.84;48.37;100520.73;1683143;83;20179;-72
2022/10/29 12:25:28;;;;;;;;;;;;;;;19.74;48.86;100518.28;1723697;82;22671;-74
2022/10/29 12:28:17;;;;;;;;;;;;;;;19.75;48.91;100512.42;1723440;81;20467;-73
2022/10/29 12:30:46;;;;;;;;;;;;;;;19.77;49.08;100512.56;1708994;82;20146;-72
2022/10/29 12:33:25;;;;;;;;;;;;;;;19.79;49.09;100507.88;1705575;81;20491;-73
2022/10/29 12:36:11;;;;;;;;;;;;;;;19.81;49.09;100505.84;1722612;81;20172;-75
2022/10/29 12:38:42;;;;;;;;;;;;;;;19.80;49.39;100504.69;1727207;81;22032;-71
2022/10/29 12:41:27;;;;;;;;;;;;;;;19.76;49.36;100505.53;1719663;81;20362;-73
2022/10/29 12:43:57;;;;;;;;;;;;;;;19.67;48.68;100501.24;1725519;82;20469;-72
2022/10/29 12:46:39;;;;;;;;;;;;;;;19.50;48.77;100511.72;1725337;81;20493;-72
2022/10/29 12:49:18;;;;;;;;;;;;;;;19.37;48.39;100510.42;1708970;81;20492;-73
2022/10/29 12:51:58;;;;;;;;;;;;;;;19.26;48.83;100508.14;1698848;83;21853;-72
2022/10/29 12:54:35;;;;;;;;;;;;;;;19.19;48.79;100503.15;1721569;81;20165;-75
2022/10/29 12:57:17;;;;;;;;;;;;;;;19.15;49.19;100503.18;1717185;81;20184;-71
2022/10/29 12:59:44;;;;;;;;;;;;;;;19.15;49.27;100500.50;1725358;81;20980;-73